createdAt,value
2022-10-25T00:00:20.051Z,100541.9609375
2022-10-25T00:01:20.198Z,100538.89453125
2022-10-25T00:02:20.162Z,100533.640625
2022-10-25T00:03:20.071Z,100540.61328125
2022-10-25T00:05:28.694Z,100543.87890625
2022-10-25T00:06:28.653Z,100538.0546875
2022-10-25T00:07:28.637Z,100538.33203125
2022-10-25T00:08:29.075Z,100536.65234375
2022-10-25T00:09:29.001Z,100533.66015625
2022-10-25T00:10:31.830Z,100540.3125
2022-10-25T00:11:28.699Z,100537.5625
2022-10-25T00:12:28.845Z,100535.828125
2022-10-25T00:13:28.778Z,100536.89453125
2022-10-25T00:14:29.070Z,100536.265625
2022-10-25T00:15:28.854Z,100534.83984375
2022-10-25T00:16:28.737Z,100531.77734375
2022-10-25T00:17:28.636Z,100535.66015625
2022-10-25T00:18:28.645Z,100540.265625
2022-10-25T00:19:29.000Z,100534.66796875
2022-10-25T00:20:28.825Z,100533.0234375
2022-10-25T00:21:31.677Z,100536.953125
2022-10-25T00:22:28.719Z,100537.13671875
2022-10-25T00:23:29.120Z,100534.1953125
2022-10-25T00:24:28.990Z,100542.40234375
2022-10-25T00:25:28.782Z,100541.30859375
2022-10-25T00:26:28.634Z,100540.45703125
2022-10-25T00:27:28.634Z,100540.99609375
2022-10-25T00:28:28.621Z,100546.5234375
2022-10-25T00:29:29.070Z,100547.5390625
2022-10-25T00:30:28.798Z,100548.23046875
2022-10-25T00:31:28.705Z,100545.65234375
2022-10-25T00:32:31.780Z,100548.08984375
2022-10-25T00:33:28.732Z,100547.87890625
2022-10-25T00:34:29.122Z,100543.578125
2022-10-25T00:35:28.828Z,100546.55078125
2022-10-25T00:36:28.790Z,100548.1015625
2022-10-25T00:37:28.756Z,100550.90625
2022-10-25T00:38:29.637Z,100551.19140625
2022-10-25T00:39:29.121Z,100552.828125
2022-10-25T00:40:28.744Z,100552.70703125
2022-10-25T00:41:28.692Z,100552.55078125
2022-10-25T00:42:28.731Z,100555.0078125
2022-10-25T00:43:31.743Z,100553.16796875
2022-10-25T00:44:28.993Z,100557.703125
2022-10-25T00:45:28.772Z,100560.44140625
2022-10-25T00:46:28.655Z,100561.28515625
2022-10-25T00:47:28.760Z,100562.3046875
2022-10-25T00:48:28.697Z,100558.625
2022-10-25T00:49:28.995Z,100566.03515625
2022-10-25T00:50:28.633Z,100568.890625
2022-10-25T00:51:28.620Z,100567.58984375
2022-10-25T00:52:28.627Z,100564.87109375
2022-10-25T00:53:29.056Z,100568.0546875
2022-10-25T00:54:34.680Z,100570.8671875
2022-10-25T00:55:28.820Z,100569.18359375
2022-10-25T00:56:28.826Z,100571.0390625
2022-10-25T00:57:28.796Z,100565.015625
2022-10-25T00:58:28.703Z,100565.66796875
2022-10-25T00:59:29.065Z,100563.96484375
2022-10-25T01:00:28.659Z,100566.2109375
2022-10-25T01:01:28.883Z,100565.4921875
2022-10-25T01:02:28.949Z,100560.98828125
2022-10-25T01:03:28.740Z,100564.12890625
2022-10-25T01:04:29.334Z,100561.98046875
2022-10-25T01:05:31.688Z,100567.5625
2022-10-25T01:06:28.716Z,100564.859375
2022-10-25T01:07:28.749Z,100561.0703125
2022-10-25T01:08:29.002Z,100563.796875
2022-10-25T01:09:28.982Z,100562.95703125
2022-10-25T01:10:28.739Z,100557.4140625
2022-10-25T01:11:28.716Z,100561.09375
2022-10-25T01:12:28.633Z,100560.09375
2022-10-25T01:13:28.631Z,100562.66796875
2022-10-25T01:14:29.059Z,100563.95703125
2022-10-25T01:15:28.701Z,100569.33203125
2022-10-25T01:16:31.710Z,100569.44921875
2022-10-25T01:17:28.725Z,100569.8203125
2022-10-25T01:18:28.779Z,100567.75390625
2022-10-25T01:19:29.085Z,100567.37109375
2022-10-25T01:20:28.839Z,100573.5
2022-10-25T01:21:28.822Z,100571.09765625
2022-10-25T01:22:28.696Z,100571.3046875
2022-10-25T01:23:29.058Z,100567.2421875
2022-10-25T01:24:28.991Z,100567.3515625
2022-10-25T01:25:28.729Z,100568.52734375
2022-10-25T01:26:28.652Z,100567.9765625
2022-10-25T01:27:31.769Z,100565.671875
2022-10-25T01:28:28.827Z,100566.375
2022-10-25T01:29:29.081Z,100566.20703125
2022-10-25T01:30:28.817Z,100569.41796875
2022-10-25T01:31:28.816Z,100564.9375
2022-10-25T01:32:28.635Z,100564.234375
2022-10-25T01:33:28.630Z,100564.4609375
2022-10-25T01:34:29.069Z,100566.60546875
2022-10-25T01:35:28.712Z,100566.796875
2022-10-25T01:36:28.756Z,100569.671875
2022-10-25T01:37:28.730Z,100568.484375
2022-10-25T01:38:34.758Z,100572.08984375
2022-10-25T01:39:28.993Z,100567.87890625
2022-10-25T01:40:28.837Z,100571.1875
2022-10-25T01:41:28.695Z,100571.0234375
2022-10-25T01:42:28.681Z,100574.01171875
2022-10-25T01:43:28.723Z,100573.0703125
2022-10-25T01:44:29.047Z,100571.87109375
2022-10-25T01:45:28.737Z,100577.078125
2022-10-25T01:46:28.851Z,100576.03125
2022-10-25T01:47:28.709Z,100575.9296875
2022-10-25T01:48:28.722Z,100579.19921875
2022-10-25T01:49:34.741Z,100579.89453125
2022-10-25T01:50:28.827Z,100578.8984375
2022-10-25T01:51:28.803Z,100579.4140625
2022-10-25T01:52:28.751Z,100579.96484375
2022-10-25T01:53:28.993Z,100581.171875
2022-10-25T01:54:28.996Z,100580.2734375
2022-10-25T01:55:28.603Z,100573.61328125
2022-10-25T01:56:28.613Z,100573.4453125
2022-10-25T01:57:28.694Z,100581.4375
2022-10-25T01:58:28.647Z,100581.6484375
2022-10-25T01:59:29.074Z,100585.37890625
2022-10-25T02:00:31.740Z,100578.59765625
2022-10-25T02:01:28.937Z,100584.23046875
2022-10-25T02:02:28.751Z,100582.30078125
2022-10-25T02:03:28.846Z,100579.50390625
2022-10-25T02:04:29.044Z,100578.83203125
2022-10-25T02:05:28.839Z,100581.5546875
2022-10-25T02:06:28.738Z,100577.421875
2022-10-25T02:07:29.069Z,100576.109375
2022-10-25T02:08:28.996Z,100576.3125
2022-10-25T02:09:28.991Z,100572.78515625
2022-10-25T02:10:28.715Z,100575.01171875
2022-10-25T02:11:31.828Z,100570.26953125
2022-10-25T02:12:28.730Z,100570.703125
2022-10-25T02:13:28.756Z,100569.66796875
2022-10-25T02:14:29.015Z,100568.9765625
2022-10-25T02:15:28.741Z,100564.49609375
2022-10-25T02:16:28.738Z,100566.28125
2022-10-25T02:17:28.736Z,100565.83203125
2022-10-25T02:18:28.722Z,100563.96484375
2022-10-25T02:19:29.056Z,100566.390625
2022-10-25T02:20:28.830Z,100564.55859375
2022-10-25T02:21:28.857Z,100567.3125
2022-10-25T02:22:31.786Z,100570.01953125
2022-10-25T02:23:28.995Z,100572.3671875
2022-10-25T02:24:29.235Z,100572.953125
2022-10-25T02:25:28.713Z,100571.80859375
2022-10-25T02:26:28.614Z,100576.32421875
2022-10-25T02:27:28.625Z,100580.59375
2022-10-25T02:28:28.634Z,100577.94921875
2022-10-25T02:29:28.738Z,100573.67578125
2022-10-25T02:30:28.715Z,100574.1953125
2022-10-25T02:31:28.638Z,100571.8671875
2022-10-25T02:32:28.623Z,100571.7265625
2022-10-25T02:33:31.637Z,100571.1953125
2022-10-25T02:34:29.003Z,100569.32421875
2022-10-25T02:35:28.694Z,100572.015625
2022-10-25T02:36:28.736Z,100574.12890625
2022-10-25T02:37:28.649Z,100574.375
2022-10-25T02:38:28.668Z,100576.56640625
2022-10-25T02:39:31.299Z,100579.0703125
2022-10-25T02:40:28.748Z,100578.9375
2022-10-25T02:41:28.713Z,100579.0859375
2022-10-25T02:42:28.846Z,100578.36328125
2022-10-25T02:44:35.670Z,100575.4453125
2022-10-25T02:45:35.770Z,100575.52734375
2022-10-25T02:46:35.807Z,100582.90234375
2022-10-25T02:47:35.820Z,100582.31640625
2022-10-25T02:48:35.688Z,100581.02734375
2022-10-25T02:49:41.707Z,100579.33203125
2022-10-25T02:50:35.754Z,100582.72265625
2022-10-25T02:51:35.730Z,100581.515625
2022-10-25T02:52:35.720Z,100585.8203125
2022-10-25T02:53:36.036Z,100583.10546875
2022-10-25T02:54:35.966Z,100584.109375
2022-10-25T02:55:35.603Z,100583.08984375
2022-10-25T02:56:35.754Z,100583.23046875
2022-10-25T02:57:35.811Z,100584.5859375
2022-10-25T02:58:35.793Z,100583.3515625
2022-10-25T02:59:35.972Z,100582.96484375
2022-10-25T03:00:38.624Z,100582.890625
2022-10-25T03:01:35.764Z,100587.96484375
2022-10-25T03:02:35.605Z,100583.52734375
2022-10-25T03:03:35.732Z,100584.109375
2022-10-25T03:04:37.734Z,100585.84375
2022-10-25T03:05:35.758Z,100585.26171875
2022-10-25T03:06:35.683Z,100586.265625
2022-10-25T03:07:35.688Z,100585.35546875
2022-10-25T03:08:35.979Z,100585.66015625
2022-10-25T03:09:36.052Z,100585.6640625
2022-10-25T03:10:35.697Z,100585.62109375
2022-10-25T03:11:38.731Z,100588.26953125
2022-10-25T03:12:35.728Z,100583.12890625
2022-10-25T03:13:35.626Z,100587.046875
2022-10-25T03:14:36.036Z,100587.109375
2022-10-25T03:15:35.817Z,100587.234375
2022-10-25T03:16:35.828Z,100588.11328125
2022-10-25T03:17:35.694Z,100587.9765625
2022-10-25T03:18:35.596Z,100587.3359375
2022-10-25T03:19:35.957Z,100585.59765625
2022-10-25T03:20:35.610Z,100587.171875
2022-10-25T03:21:37.632Z,100590.5625
2022-10-25T03:22:38.600Z,100590.45703125
2022-10-25T03:23:35.953Z,100589.9765625
2022-10-25T03:24:35.964Z,100590.0390625
2022-10-25T03:25:35.616Z,100593.4375
2022-10-25T03:26:35.588Z,100592.68359375
2022-10-25T03:27:35.666Z,100590.77734375
2022-10-25T03:28:35.737Z,100591.7109375
2022-10-25T03:29:36.025Z,100595.2265625
2022-10-25T03:30:35.822Z,100596.42578125
2022-10-25T03:31:35.735Z,100595.76171875
2022-10-25T03:32:35.586Z,100595.59765625
2022-10-25T03:33:38.689Z,100597.9140625
2022-10-25T03:34:35.959Z,100592.88671875
2022-10-25T03:35:35.820Z,100592.5078125
2022-10-25T03:36:35.767Z,100595.5234375
2022-10-25T03:37:35.614Z,100594.08203125
2022-10-25T03:38:36.027Z,100594.1796875
2022-10-25T03:39:35.947Z,100592.3984375
2022-10-25T03:40:35.605Z,100593.359375
2022-10-25T03:41:35.592Z,100596.34375
2022-10-25T03:42:35.590Z,100591.3125
2022-10-25T03:43:35.615Z,100596.44921875
2022-10-25T03:44:41.655Z,100592.59375
2022-10-25T03:45:35.695Z,100597.91796875
2022-10-25T03:46:35.596Z,100598.73046875
2022-10-25T03:47:35.607Z,100602.3515625
2022-10-25T03:48:35.684Z,100598.41015625
2022-10-25T03:49:35.964Z,100601.7265625
2022-10-25T03:50:35.681Z,100601.2109375
2022-10-25T03:51:35.652Z,100597.58203125
2022-10-25T03:52:35.600Z,100603.92578125
2022-10-25T03:53:35.750Z,100600.06640625
2022-10-25T03:54:35.803Z,100597.3671875
2022-10-25T03:55:38.606Z,100591.65234375
2022-10-25T03:56:35.773Z,100596.08203125
2022-10-25T03:57:35.700Z,100595.10546875
2022-10-25T03:58:35.704Z,100595.27734375
2022-10-25T03:59:35.728Z,100596.078125
2022-10-25T04:00:35.826Z,100597.1640625
2022-10-25T04:01:35.847Z,100599.83984375
2022-10-25T04:02:35.708Z,100602.96875
2022-10-25T04:03:35.782Z,100604.8125
2022-10-25T04:04:36.183Z,100608.74609375
2022-10-25T04:05:35.683Z,100608.7578125
2022-10-25T04:06:38.630Z,100605.9921875
2022-10-25T04:07:35.703Z,100607.09765625
2022-10-25T04:08:36.033Z,100609.59765625
2022-10-25T04:09:35.969Z,100609.09765625
2022-10-25T04:10:35.816Z,100608.61328125
2022-10-25T04:11:35.686Z,100608.55078125
2022-10-25T04:12:35.594Z,100610.8125
2022-10-25T04:13:35.729Z,100609.88671875
2022-10-25T04:14:35.992Z,100610.71484375
2022-10-25T04:15:35.771Z,100615.07421875
2022-10-25T04:16:35.705Z,100618.04296875
2022-10-25T04:17:38.720Z,100620.12890625
2022-10-25T04:18:35.810Z,100618.25390625
2022-10-25T04:19:36.153Z,100617.29296875
2022-10-25T04:20:35.786Z,100621.2265625
2022-10-25T04:21:35.780Z,100620.8359375
2022-10-25T04:23:42.960Z,100618.83203125
2022-10-25T04:24:42.484Z,100620.3671875
2022-10-25T04:25:42.460Z,100620.2578125
2022-10-25T04:26:42.459Z,100620.52734375
2022-10-25T04:27:42.482Z,100621.2734375
2022-10-25T04:28:45.583Z,100619.0703125
2022-10-25T04:29:42.822Z,100619.9453125
2022-10-25T04:30:42.562Z,100620.0078125
2022-10-25T04:31:42.475Z,100619.13671875
2022-10-25T04:32:42.570Z,100621.484375
2022-10-25T04:33:45.175Z,100621.2265625
2022-10-25T04:34:42.826Z,100624.07421875
2022-10-25T04:35:42.558Z,100621.75
2022-10-25T04:36:42.635Z,100629.37109375
2022-10-25T04:37:42.625Z,100626.19140625
2022-10-25T04:38:42.834Z,100625.4765625
2022-10-25T04:39:48.608Z,100624.50390625
2022-10-25T04:40:42.653Z,100623.328125
2022-10-25T04:41:42.597Z,100626.3125
2022-10-25T04:42:42.665Z,100621.85546875
2022-10-25T04:43:42.558Z,100622.34765625
2022-10-25T04:44:42.941Z,100622.30078125
2022-10-25T04:45:42.592Z,100623.125
2022-10-25T04:46:46.358Z,100619.62109375
2022-10-25T04:47:42.632Z,100615.95703125
2022-10-25T04:48:42.587Z,100623.08984375
2022-10-25T04:49:43.080Z,100620.3984375
2022-10-25T04:50:45.542Z,100623.03515625
2022-10-25T04:51:42.654Z,100624.22265625
2022-10-25T04:52:42.492Z,100628.1796875
2022-10-25T04:53:42.898Z,100628.67578125
2022-10-25T04:54:42.830Z,100624.0859375
2022-10-25T04:55:42.678Z,100626.15625
2022-10-25T04:56:42.474Z,100627.140625
2022-10-25T04:57:42.506Z,100626.09765625
2022-10-25T04:58:42.455Z,100625.27734375
2022-10-25T04:59:42.904Z,100622.0625
2022-10-25T05:00:42.544Z,100620.64453125
2022-10-25T05:01:45.763Z,100621.84765625
2022-10-25T05:02:42.589Z,100618.4140625
2022-10-25T05:03:42.460Z,100614.79296875
2022-10-25T05:04:42.899Z,100618.1875
2022-10-25T05:05:42.637Z,100618.97265625
2022-10-25T05:06:42.495Z,100622.66796875
2022-10-25T05:07:42.557Z,100621.703125
2022-10-25T05:08:42.929Z,100620.7890625
2022-10-25T05:09:46.540Z,100622.15234375
2022-10-25T05:10:42.550Z,100624.9375
2022-10-25T05:11:42.469Z,100624.6015625
2022-10-25T05:12:45.684Z,100627.546875
2022-10-25T05:13:42.562Z,100629.01953125
2022-10-25T05:14:43.636Z,100629.44921875
2022-10-25T05:15:42.574Z,100629.53125
2022-10-25T05:16:42.462Z,100628.86328125
2022-10-25T05:17:42.454Z,100630.5625
2022-10-25T05:18:42.577Z,100634.55078125
2022-10-25T05:19:42.900Z,100633.6328125
2022-10-25T05:20:42.614Z,100637.08203125
2022-10-25T05:21:42.460Z,100636.34765625
2022-10-25T05:22:42.470Z,100636.14453125
2022-10-25T05:23:48.591Z,100638.0625
2022-10-25T05:24:42.571Z,100642.22265625
2022-10-25T05:25:42.574Z,100642.1484375
2022-10-25T05:26:42.480Z,100643.23828125
2022-10-25T05:27:42.639Z,100640.23046875
2022-10-25T05:28:42.625Z,100646.1796875
2022-10-25T05:29:42.830Z,100643.8828125
2022-10-25T05:30:42.573Z,100641.19140625
2022-10-25T05:31:42.592Z,100638.61328125
2022-10-25T05:32:42.596Z,100641.3125
2022-10-25T05:33:42.535Z,100640
2022-10-25T05:34:48.529Z,100641.95703125
2022-10-25T05:35:42.677Z,100643.59765625
2022-10-25T05:36:42.519Z,100643.69921875
2022-10-25T05:37:42.583Z,100643.9765625
2022-10-25T05:38:42.826Z,100643.21484375
2022-10-25T05:39:42.834Z,100644.546875
2022-10-25T05:40:42.490Z,100642.66796875
2022-10-25T05:41:42.585Z,100640.109375
2022-10-25T05:42:42.677Z,100644.4296875
2022-10-25T05:43:42.559Z,100642.203125
2022-10-25T05:44:42.920Z,100641.84375
2022-10-25T05:45:45.647Z,100642.9296875
2022-10-25T05:46:42.672Z,100648.3125
2022-10-25T05:47:42.558Z,100648.41015625
2022-10-25T05:48:48.153Z,100649.62890625
2022-10-25T05:49:42.826Z,100648.50390625
2022-10-25T05:51:49.467Z,100645.58984375
2022-10-25T05:52:49.791Z,100646.3515625
2022-10-25T05:53:49.871Z,100648.3984375
2022-10-25T05:54:49.759Z,100648.62109375
2022-10-25T05:55:49.476Z,100646.796875
2022-10-25T05:56:52.423Z,100646.97265625
2022-10-25T05:57:49.556Z,100649.21875
2022-10-25T05:58:49.385Z,100646.92578125
2022-10-25T05:59:49.812Z,100649.640625
2022-10-25T06:00:49.499Z,100651.3828125
2022-10-25T06:01:49.571Z,100652.046875
2022-10-25T06:02:49.575Z,100653.57421875
2022-10-25T06:03:49.478Z,100656.12890625
2022-10-25T06:04:52.366Z,100654.2421875
2022-10-25T06:05:49.438Z,100660.46875
2022-10-25T06:06:49.498Z,100659.82421875
2022-10-25T06:07:52.375Z,100667.02734375
2022-10-25T06:08:49.764Z,100666.76953125
2022-10-25T06:09:49.869Z,100676.83203125
2022-10-25T06:10:49.551Z,100678.47265625
2022-10-25T06:11:49.574Z,100681.60546875
2022-10-25T06:12:49.787Z,100681.421875
2022-10-25T06:13:49.426Z,100685.48046875
2022-10-25T06:14:49.818Z,100687.9921875
2022-10-25T06:15:49.570Z,100685.94140625
2022-10-25T06:16:49.611Z,100689.90234375
2022-10-25T06:17:49.554Z,100691.48046875
2022-10-25T06:18:52.415Z,100697.1875
2022-10-25T06:19:50.345Z,100694.22265625
2022-10-25T06:20:49.499Z,100694.80078125
2022-10-25T06:21:49.370Z,100692.8046875
2022-10-25T06:22:49.741Z,100695.6953125
2022-10-25T06:23:49.812Z,100696.86328125
2022-10-25T06:24:49.743Z,100694.87109375
2022-10-25T06:25:49.457Z,100694.22265625
2022-10-25T06:26:49.516Z,100694.8046875
2022-10-25T06:27:52.114Z,100697.265625
2022-10-25T06:28:49.570Z,100697.4765625
2022-10-25T06:29:55.378Z,100698.08984375
2022-10-25T06:30:49.453Z,100702.01953125
2022-10-25T06:31:49.562Z,100704.6328125
2022-10-25T06:32:49.846Z,100706.19140625
2022-10-25T06:33:49.390Z,100708.3125
2022-10-25T06:34:49.816Z,100709.15234375
2022-10-25T06:35:49.445Z,100710.02734375
2022-10-25T06:36:49.509Z,100706.75
2022-10-25T06:37:49.474Z,100707.6171875
2022-10-25T06:38:49.808Z,100708.93359375
2022-10-25T06:39:49.973Z,100703.234375
2022-10-25T06:40:52.365Z,100704.9453125
2022-10-25T06:41:49.445Z,100703.92578125
2022-10-25T06:42:49.450Z,100694.54296875
2022-10-25T06:43:49.387Z,100696.47265625
2022-10-25T06:44:49.811Z,100696.5859375
2022-10-25T06:45:49.588Z,100700.265625
2022-10-25T06:47:15.880Z,100704.4453125
2022-10-25T06:47:49.494Z,100706.72265625
2022-10-25T06:48:49.460Z,100704.84375
2022-10-25T06:49:49.741Z,100706.37890625
2022-10-25T06:50:52.112Z,100710.98046875
2022-10-25T06:51:52.514Z,100714.6015625
2022-10-25T06:52:49.701Z,100719
2022-10-25T06:53:49.811Z,100718.71484375
2022-10-25T06:54:49.734Z,100724.99609375
2022-10-25T06:55:49.546Z,100724.35546875
2022-10-25T06:56:49.485Z,100728.3515625
2022-10-25T06:57:49.463Z,100724.859375
2022-10-25T06:58:49.530Z,100723.22265625
2022-10-25T06:59:49.825Z,100729.1171875
2022-10-25T07:00:49.774Z,100731.0390625
2022-10-25T07:01:49.570Z,100734.01953125
2022-10-25T07:02:52.370Z,100735.03125
2022-10-25T07:03:49.554Z,100735.13671875
2022-10-25T07:04:49.856Z,100731.73046875
2022-10-25T07:05:49.454Z,100732.71484375
2022-10-25T07:06:52.795Z,100730.6328125
2022-10-25T07:07:49.658Z,100732.47265625
2022-10-25T07:08:49.741Z,100735.46484375
2022-10-25T07:09:49.820Z,100734.39453125
2022-10-25T07:10:49.592Z,100731.8828125
2022-10-25T07:11:49.603Z,100729.21484375
2022-10-25T07:12:49.606Z,100730.203125
2022-10-25T07:13:52.501Z,100726.47265625
2022-10-25T07:14:49.735Z,100725.16015625
2022-10-25T07:15:49.501Z,100726.13671875
2022-10-25T07:16:49.372Z,100727.19921875
2022-10-25T07:17:49.572Z,100723.69921875
2022-10-25T07:18:49.394Z,100727.875
2022-10-25T07:19:49.856Z,100727.03515625
2022-10-25T07:20:49.384Z,100729.7421875
2022-10-25T07:21:49.544Z,100728.96484375
2022-10-25T07:22:49.467Z,100728.53515625
2022-10-25T07:23:49.861Z,100725.01953125
2022-10-25T07:24:52.391Z,100723.25
2022-10-25T07:25:49.499Z,100730.484375
2022-10-25T07:26:49.529Z,100734.640625
2022-10-25T07:27:49.693Z,100740.234375
2022-10-25T07:28:49.814Z,100741.421875
2022-10-25T07:29:49.477Z,100744.32421875
2022-10-25T07:30:49.397Z,100745.34375
2022-10-25T07:31:49.393Z,100745.546875
2022-10-25T07:32:49.378Z,100745.91796875
2022-10-25T07:33:49.826Z,100747.83984375
2022-10-25T07:34:49.623Z,100747.7421875
2022-10-25T07:36:06.086Z,100746.53125
2022-10-25T07:36:49.595Z,100752.09765625
2022-10-25T07:37:49.916Z,100750.34765625
2022-10-25T07:38:49.742Z,100749.81640625
2022-10-25T07:39:49.403Z,100753.55859375
2022-10-25T07:40:49.385Z,100755.3125
2022-10-25T07:41:49.530Z,100754.359375
2022-10-25T07:42:49.410Z,100757.609375
2022-10-25T07:43:49.805Z,100762.7890625
2022-10-25T07:44:49.489Z,100763.01171875
2022-10-25T07:45:49.419Z,100767.2890625
2022-10-25T07:46:52.433Z,100770.3515625
2022-10-25T07:47:49.835Z,100773.171875
2022-10-25T07:48:49.813Z,100769.97265625
2022-10-25T07:49:49.452Z,100771.67578125
2022-10-25T07:50:49.385Z,100771.58203125
2022-10-25T07:51:49.401Z,100774.05859375
2022-10-25T07:52:49.487Z,100774.1328125
2022-10-25T07:53:49.914Z,100775.17578125
2022-10-25T07:54:49.563Z,100772.2421875
2022-10-25T07:55:49.598Z,100776.6015625
2022-10-25T07:56:49.585Z,100780.890625
2022-10-25T07:57:52.452Z,100782.7265625
2022-10-25T07:58:49.740Z,100781.3359375
2022-10-25T07:59:49.580Z,100783.296875
2022-10-25T08:00:49.526Z,100789.1640625
2022-10-25T08:01:49.661Z,100784.78125
2022-10-25T08:02:49.486Z,100782.45703125
2022-10-25T08:03:49.741Z,100781.53125
2022-10-25T08:04:52.246Z,100785.203125
2022-10-25T08:05:49.600Z,100789.12109375
2022-10-25T08:06:49.583Z,100781.03515625
2022-10-25T08:07:49.756Z,100776.97265625
2022-10-25T08:08:55.388Z,100777.35546875
2022-10-25T08:09:49.610Z,100778.38671875
2022-10-25T08:10:49.551Z,100775.703125
2022-10-25T08:11:49.606Z,100780.17578125
2022-10-25T08:12:49.477Z,100777.7890625
2022-10-25T08:13:49.827Z,100776.671875
2022-10-25T08:14:49.797Z,100775.11328125
2022-10-25T08:15:49.392Z,100776.75
2022-10-25T08:16:49.384Z,100770.84765625
2022-10-25T08:17:49.932Z,100775.453125
2022-10-25T08:18:49.827Z,100774.58984375
2022-10-25T08:19:52.434Z,100774.71484375
2022-10-25T08:21:01.732Z,100776.53125
2022-10-25T08:21:49.488Z,100771.47265625
2022-10-25T08:22:49.583Z,100773.703125
2022-10-25T08:23:49.760Z,100775.3359375
2022-10-25T08:24:49.456Z,100779.765625
2022-10-25T08:25:49.398Z,100777.83203125
2022-10-25T08:26:49.494Z,100779.7421875
2022-10-25T08:27:49.649Z,100783.62109375
2022-10-25T08:28:49.744Z,100780.0078125
2022-10-25T08:29:49.492Z,100784.74609375
2022-10-25T08:30:52.488Z,100781.7421875
2022-10-25T08:31:49.646Z,100781.18359375
2022-10-25T08:32:49.467Z,100784.91015625
2022-10-25T08:33:49.812Z,100783.1640625
2022-10-25T08:34:49.446Z,100783.23046875
2022-10-25T08:35:49.462Z,100786.7109375
2022-10-25T08:36:49.386Z,100788.30859375
2022-10-25T08:37:49.839Z,100782.25
2022-10-25T08:38:49.820Z,100784.37109375
2022-10-25T08:39:53.520Z,100787.4296875
2022-10-25T08:40:49.476Z,100786.3203125
2022-10-25T08:41:52.483Z,100786.30859375
2022-10-25T08:42:49.608Z,100787.19921875
2022-10-25T08:43:49.834Z,100787.66015625
2022-10-25T08:44:49.460Z,100789.52734375
2022-10-25T08:45:49.505Z,100789.5625
2022-10-25T08:46:49.552Z,100788.01953125
2022-10-25T08:47:49.747Z,100791.49609375
2022-10-25T08:48:49.813Z,100790.9375
2022-10-25T08:49:49.439Z,100796.6953125
2022-10-25T08:50:49.391Z,100797.62109375
2022-10-25T08:51:49.501Z,100794.8984375
2022-10-25T08:52:52.505Z,100797.58203125
2022-10-25T08:53:49.863Z,100797.65625
2022-10-25T08:54:49.488Z,100791.7265625
2022-10-25T08:56:04.916Z,100788.609375
2022-10-25T08:57:03.361Z,100788.9375
2022-10-25T08:57:49.649Z,100788.765625
2022-10-25T08:58:49.781Z,100789.8203125
2022-10-25T08:59:49.391Z,100793.87890625
2022-10-25T09:00:49.524Z,100795.015625
2022-10-25T09:01:49.815Z,100798.16796875
2022-10-25T09:02:49.459Z,100792.35546875
2022-10-25T09:03:55.382Z,100792.53125
2022-10-25T09:04:49.566Z,100789.7109375
2022-10-25T09:05:49.376Z,100794.5390625
2022-10-25T09:06:49.602Z,100795.265625
2022-10-25T09:07:49.864Z,100795.953125
2022-10-25T09:08:49.741Z,100794.7890625
2022-10-25T09:09:49.382Z,100792.19140625
2022-10-25T09:10:49.389Z,100794.14453125
2022-10-25T09:11:49.458Z,100791.16015625
2022-10-25T09:12:49.611Z,100796.3671875
2022-10-25T09:13:49.747Z,100794.74609375
2022-10-25T09:14:52.503Z,100793.98046875
2022-10-25T09:15:49.484Z,100795.171875
2022-10-25T09:16:49.508Z,100797.6953125
2022-10-25T09:17:49.706Z,100799.140625
2022-10-25T09:18:49.737Z,100797.94921875
2022-10-25T09:19:49.541Z,100800.7734375
2022-10-25T09:20:49.479Z,100805.06640625
2022-10-25T09:21:49.386Z,100799.0859375
2022-10-25T09:22:49.384Z,100798.33984375
2022-10-25T09:23:49.790Z,100800.4453125
2022-10-25T09:24:51.831Z,100798.1171875
2022-10-25T09:25:52.467Z,100801.6328125
2022-10-25T09:26:49.483Z,100801.64453125
2022-10-25T09:27:49.964Z,100802.66796875
2022-10-25T09:28:49.738Z,100801.03125
2022-10-25T09:29:49.575Z,100802.18359375
2022-10-25T09:30:49.554Z,100803.26171875
2022-10-25T09:31:49.487Z,100803.23046875
2022-10-25T09:32:49.536Z,100803.14453125
2022-10-25T09:33:49.746Z,100801.9375
2022-10-25T09:34:49.580Z,100804.140625
2022-10-25T09:35:49.539Z,100809.08984375
2022-10-25T09:36:52.421Z,100805.55859375
2022-10-25T09:37:50.016Z,100805.44921875
2022-10-25T09:38:49.744Z,100804.10546875
2022-10-25T09:39:49.483Z,100803.53125
2022-10-25T09:40:49.538Z,100802.59375
2022-10-25T09:41:49.457Z,100802.23046875
2022-10-25T09:42:49.373Z,100800.94140625
2022-10-25T09:43:49.909Z,100802.078125
2022-10-25T09:44:49.464Z,100801.1484375
2022-10-25T09:45:49.398Z,100801.40234375
2022-10-25T09:46:49.388Z,100800.84765625
2022-10-25T09:47:52.357Z,100799.73828125
2022-10-25T09:48:49.770Z,100799.21875
2022-10-25T09:49:49.478Z,100801.078125
2022-10-25T09:50:49.520Z,100804.7890625
2022-10-25T09:51:49.597Z,100801.52734375
2022-10-25T09:52:49.535Z,100804.99609375
2022-10-25T09:53:49.822Z,100803.62890625
2022-10-25T09:54:49.508Z,100804.3984375
2022-10-25T09:55:49.479Z,100806.46484375
2022-10-25T09:56:49.472Z,100807.15234375
2022-10-25T09:57:49.759Z,100806.05859375
2022-10-25T09:58:55.431Z,100806.625
2022-10-25T09:59:49.585Z,100807.64453125
2022-10-25T10:00:49.578Z,100809.35546875
2022-10-25T10:01:49.673Z,100803.0078125
2022-10-25T10:02:49.703Z,100806.30859375